CheckWX is a tool to help pilots better visualize weather data.  It is not intended as a substitute for an official pre-flight weather briefing.

22:50:47 UTC

KBRL METAR
Southeast Iowa Regional Airport
Burlington, Iowa, USA
Current

58 mins ago

KBRL 222153Z AUTO 00000KT 10SM CLR 01/M05 A3014 RMK AO2 SLP214 T00061050
Observed
Nov-22 @ 21:53 UTC
Visibility
10 SM
Flight Rules
VFR
Cloud Levels
  • Clear skies
Temperature
C / 34°F
Dewpoint
-5°C / 23°F
Humidity
65%
Altimeter
30.14" Hg
Pressure
1020.62 hPa
Previous

2 hours ago

KBRL 222053Z AUTO 04006KT 10SM CLR 01/M04 A3014 RMK AO2 SLP214 T00111044 56027
Observed
Nov-22 @ 20:53 UTC
Wind
  • 040° at 6 KTS
Visibility
10 SM
Flight Rules
VFR
Cloud Levels
  • Clear skies
Temperature
C / 34°F
Dewpoint
-4°C / 25°F
Humidity
70%
Altimeter
30.14" Hg
Pressure
1020.62 hPa
Previous

3 hours ago

KBRL 221953Z AUTO 02006KT 9SM CLR 02/M04 A3016 RMK AO2 SLP219 T00171044
Observed
Nov-22 @ 19:53 UTC
Wind
  • 020° at 6 KTS
Visibility
9 SM
Flight Rules
VFR
Cloud Levels
  • Clear skies
Temperature
C / 36°F
Dewpoint
-4°C / 25°F
Humidity
65%
Altimeter
30.16" Hg
Pressure
1021.32 hPa